sensor_id;sensor_type;location;lat;lon;timestamp;temperature;humidity
12684;DHT22;6406;59.312;18.058;2022-11-15T00:00:37;7.30;99.90
12684;DHT22;6406;59.312;18.058;2022-11-15T00:03:04;7.30;99.90
12684;DHT22;6406;59.312;18.058;2022-11-15T00:05:34;7.40;99.90
12684;DHT22;6406;59.312;18.058;2022-11-15T00:08:01;7.40;99.90
12684;DHT22;6406;59.312;18.058;2022-11-15T00:10:28;5.50;99.90
12684;DHT22;6406;59.312;18.058;2022-11-15T00:12:55;7.30;99.90
12684;DHT22;6406;59.312;18.058;2022-11-15T00:15:22;7.30;99.90
12684;DHT22;6406;59.312;18.058;2022-11-15T00:17:51;7.30;99.90
12684;DHT22;6406;59.312;18.058;2022-11-15T00:20:18;7.30;99.90
12684;DHT22;6406;59.312;18.058;2022-11-15T00:22:45;7.20;99.90
12684;DHT22;6406;59.312;18.058;2022-11-15T00:25:12;7.20;99.90
12684;DHT22;6406;59.312;18.058;2022-11-15T00:27:39;7.20;99.90
12684;DHT22;6406;59.312;18.058;2022-11-15T00:30:07;7.20;99.90
12684;DHT22;6406;59.312;18.058;2022-11-15T00:32:34;7.10;99.90
12684;DHT22;6406;59.312;18.058;2022-11-15T00:35:02;7.10;99.90
12684;DHT22;6406;59.312;18.058;2022-11-15T00:37:30;7.00;99.90
12684;DHT22;6406;59.312;18.058;2022-11-15T00:39:57;7.00;99.90
12684;DHT22;6406;59.312;18.058;2022-11-15T00:42:24;7.10;99.90
12684;DHT22;6406;59.312;18.058;2022-11-15T00:44:51;7.00;99.90
12684;DHT22;6406;59.312;18.058;2022-11-15T00:47:18;7.00;99.90
12684;DHT22;6406;59.312;18.058;2022-11-15T00:49:45;6.90;99.90
12684;DHT22;6406;59.312;18.058;2022-11-15T00:52:13;6.90;99.90
12684;DHT22;6406;59.312;18.058;2022-11-15T00:54:40;6.90;99.90
12684;DHT22;6406;59.312;18.058;2022-11-15T00:57:07;6.90;99.90
12684;DHT22;6406;59.312;18.058;2022-11-15T00:59:34;6.90;99.90
12684;DHT22;6406;59.312;18.058;2022-11-15T01:02:01;6.90;99.90
12684;DHT22;6406;59.312;18.058;2022-11-15T01:04:28;6.80;99.90
12684;DHT22;6406;59.312;18.058;2022-11-15T01:06:55;6.90;99.90
12684;DHT22;6406;59.312;18.058;2022-11-15T01:09:24;6.80;99.90
12684;DHT22;6406;59.312;18.058;2022-11-15T01:11:51;6.90;99.90
12684;DHT22;6406;59.312;18.058;2022-11-15T01:14:18;6.90;99.90
12684;DHT22;6406;59.312;18.058;2022-11-15T01:16:46;6.90;99.90
12684;DHT22;6406;59.312;18.058;2022-11-15T01:19:13;6.80;99.90
12684;DHT22;6406;59.312;18.058;2022-11-15T01:21:40;6.80;99.90
12684;DHT22;6406;59.312;18.058;2022-11-15T01:24:08;6.70;99.90
12684;DHT22;6406;59.312;18.058;2022-11-15T01:26:39;6.80;99.90
12684;DHT22;6406;59.312;18.058;2022-11-15T01:29:07;6.80;99.90
12684;DHT22;6406;59.312;18.058;2022-11-15T01:31:34;6.60;99.90
12684;DHT22;6406;59.312;18.058;2022-11-15T01:34:01;6.60;99.90
12684;DHT22;6406;59.312;18.058;2022-11-15T01:36:28;6.60;99.90
12684;DHT22;6406;59.312;18.058;2022-11-15T01:38:55;6.60;99.90
12684;DHT22;6406;59.312;18.058;2022-11-15T01:41:24;6.70;99.90
12684;DHT22;6406;59.312;18.058;2022-11-15T01:43:55;6.60;99.90
12684;DHT22;6406;59.312;18.058;2022-11-15T01:46:29;6.70;99.90
12684;DHT22;6406;59.312;18.058;2022-11-15T01:49:00;6.80;99.90
12684;DHT22;6406;59.312;18.058;2022-11-15T01:51:31;6.80;99.90
12684;DHT22;6406;59.312;18.058;2022-11-15T01:54:03;6.80;99.90
12684;DHT22;6406;59.312;18.058;2022-11-15T01:56:39;6.70;99.90
12684;DHT22;6406;59.312;18.058;2022-11-15T01:59:10;6.70;99.90
12684;DHT22;6406;59.312;18.058;2022-11-15T02:01:38;6.70;99.90
12684;DHT22;6406;59.312;18.058;2022-11-15T02:04:09;6.60;99.90
12684;DHT22;6406;59.312;18.058;2022-11-15T02:06:38;6.50;99.90
12684;DHT22;6406;59.312;18.058;2022-11-15T02:09:06;6.40;99.90
12684;DHT22;6406;59.312;18.058;2022-11-15T02:11:33;6.40;99.90
12684;DHT22;6406;59.312;18.058;2022-11-15T02:14:01;6.40;99.90
12684;DHT22;6406;59.312;18.058;2022-11-15T02:16:38;6.30;99.90
12684;DHT22;6406;59.312;18.058;2022-11-15T02:19:23;6.40;99.90
12684;DHT22;6406;59.312;18.058;2022-11-15T02:22:04;6.50;99.90
12684;DHT22;6406;59.312;18.058;2022-11-15T02:24:59;6.50;99.90
12684;DHT22;6406;59.312;18.058;2022-11-15T02:27:52;6.40;99.90
12684;DHT22;6406;59.312;18.058;2022-11-15T02:30:29;6.50;99.90
12684;DHT22;6406;59.312;18.058;2022-11-15T02:33:03;6.50;99.90
12684;DHT22;6406;59.312;18.058;2022-11-15T02:35:39;6.50;99.90
12684;DHT22;6406;59.312;18.058;2022-11-15T02:38:18;6.50;99.90
12684;DHT22;6406;59.312;18.058;2022-11-15T02:40:53;6.30;99.90
12684;DHT22;6406;59.312;18.058;2022-11-15T02:43:27;6.30;99.90
12684;DHT22;6406;59.312;18.058;2022-11-15T02:46:18;6.30;99.90
12684;DHT22;6406;59.312;18.058;2022-11-15T02:48:47;6.20;99.90
12684;DHT22;6406;59.312;18.058;2022-11-15T02:51:15;6.20;99.90
12684;DHT22;6406;59.312;18.058;2022-11-15T02:53:43;6.20;99.90
12684;DHT22;6406;59.312;18.058;2022-11-15T02:56:11;6.10;99.90
12684;DHT22;6406;59.312;18.058;2022-11-15T02:58:53;6.20;99.90
12684;DHT22;6406;59.312;18.058;2022-11-15T03:01:34;6.20;99.90
12684;DHT22;6406;59.312;18.058;2022-11-15T03:04:14;6.10;99.90
12684;DHT22;6406;59.312;18.058;2022-11-15T03:06:49;6.10;99.90
12684;DHT22;6406;59.312;18.058;2022-11-15T03:09:26;6.10;99.90
12684;DHT22;6406;59.312;18.058;2022-11-15T03:11:59;6.00;99.90
12684;DHT22;6406;59.312;18.058;2022-11-15T03:14:30;5.90;99.90
12684;DHT22;6406;59.312;18.058;2022-11-15T03:17:04;5.80;99.90
12684;DHT22;6406;59.312;18.058;2022-11-15T03:19:35;5.90;99.90
12684;DHT22;6406;59.312;18.058;2022-11-15T03:22:08;5.90;99.90
12684;DHT22;6406;59.312;18.058;2022-11-15T03:24:37;6.00;99.90
12684;DHT22;6406;59.312;18.058;2022-11-15T03:27:06;5.10;99.90
12684;DHT22;6406;59.312;18.058;2022-11-15T03:29:36;6.00;99.90
12684;DHT22;6406;59.312;18.058;2022-11-15T03:32:11;6.00;99.90
12684;DHT22;6406;59.312;18.058;2022-11-15T03:34:45;6.00;99.90
12684;DHT22;6406;59.312;18.058;2022-11-15T03:37:15;5.90;99.90
12684;DHT22;6406;59.312;18.058;2022-11-15T03:39:43;5.90;99.90
12684;DHT22;6406;59.312;18.058;2022-11-15T03:42:19;5.90;99.90
12684;DHT22;6406;59.312;18.058;2022-11-15T03:44:52;5.90;99.90
12684;DHT22;6406;59.312;18.058;2022-11-15T03:47:27;5.80;99.90
12684;DHT22;6406;59.312;18.058;2022-11-15T03:49:58;5.60;99.90
12684;DHT22;6406;59.312;18.058;2022-11-15T03:52:26;5.60;99.90
12684;DHT22;6406;59.312;18.058;2022-11-15T03:55:01;5.60;99.90
12684;DHT22;6406;59.312;18.058;2022-11-15T03:57:29;5.50;99.90
12684;DHT22;6406;59.312;18.058;2022-11-15T03:59:56;5.40;99.90
12684;DHT22;6406;59.312;18.058;2022-11-15T04:02:24;5.50;99.90
12684;DHT22;6406;59.312;18.058;2022-11-15T04:04:51;5.70;99.90
12684;DHT22;6406;59.312;18.058;2022-11-15T04:07:18;5.60;99.90
12684;DHT22;6406;59.312;18.058;2022-11-15T04:09:45;5.70;99.90
12684;DHT22;6406;59.312;18.058;2022-11-15T04:12:31;5.70;99.90
12684;DHT22;6406;59.312;18.058;2022-11-15T04:15:00;5.60;99.90
12684;DHT22;6406;59.312;18.058;2022-11-15T04:17:37;5.70;99.90
12684;DHT22;6406;59.312;18.058;2022-11-15T04:20:06;5.80;99.90
12684;DHT22;6406;59.312;18.058;2022-11-15T04:22:52;5.90;99.90
12684;DHT22;6406;59.312;18.058;2022-11-15T04:25:37;5.70;99.90
12684;DHT22;6406;59.312;18.058;2022-11-15T04:28:04;5.80;99.90
12684;DHT22;6406;59.312;18.058;2022-11-15T04:30:31;5.70;99.90
12684;DHT22;6406;59.312;18.058;2022-11-15T04:33:00;5.70;99.90
12684;DHT22;6406;59.312;18.058;2022-11-15T04:35:27;5.70;99.90
12684;DHT22;6406;59.312;18.058;2022-11-15T04:37:55;5.70;99.90
12684;DHT22;6406;59.312;18.058;2022-11-15T04:40:21;5.70;99.90
12684;DHT22;6406;59.312;18.058;2022-11-15T04:42:48;5.60;99.90
12684;DHT22;6406;59.312;18.058;2022-11-15T04:45:15;5.70;99.90
12684;DHT22;6406;59.312;18.058;2022-11-15T04:47:43;5.70;99.90
12684;DHT22;6406;59.312;18.058;2022-11-15T04:50:12;5.80;99.90
12684;DHT22;6406;59.312;18.058;2022-11-15T04:52:40;5.80;99.90
12684;DHT22;6406;59.312;18.058;2022-11-15T04:55:08;5.90;99.90
12684;DHT22;6406;59.312;18.058;2022-11-15T04:57:36;5.80;99.90
12684;DHT22;6406;59.312;18.058;2022-11-15T05:00:06;5.80;99.90
12684;DHT22;6406;59.312;18.058;2022-11-15T05:02:33;5.80;99.90
12684;DHT22;6406;59.312;18.058;2022-11-15T05:05:15;5.80;99.90
12684;DHT22;6406;59.312;18.058;2022-11-15T05:07:43;5.90;99.90
12684;DHT22;6406;59.312;18.058;2022-11-15T05:10:10;5.80;99.90
12684;DHT22;6406;59.312;18.058;2022-11-15T05:12:37;5.90;99.90
12684;DHT22;6406;59.312;18.058;2022-11-15T05:15:05;5.90;99.90
12684;DHT22;6406;59.312;18.058;2022-11-15T05:17:34;5.90;99.90
12684;DHT22;6406;59.312;18.058;2022-11-15T05:20:01;5.90;99.90
12684;DHT22;6406;59.312;18.058;2022-11-15T05:22:30;5.90;99.90
12684;DHT22;6406;59.312;18.058;2022-11-15T05:24:57;6.00;99.90
12684;DHT22;6406;59.312;18.058;2022-11-15T05:27:24;6.00;99.90
12684;DHT22;6406;59.312;18.058;2022-11-15T05:29:52;5.90;99.90
12684;DHT22;6406;59.312;18.058;2022-11-15T05:32:20;5.30;99.90
12684;DHT22;6406;59.312;18.058;2022-11-15T05:34:48;5.90;99.90
12684;DHT22;6406;59.312;18.058;2022-11-15T05:37:16;5.90;99.90
12684;DHT22;6406;59.312;18.058;2022-11-15T05:39:44;5.80;99.90
12684;DHT22;6406;59.312;18.058;2022-11-15T05:42:14;5.90;99.90
12684;DHT22;6406;59.312;18.058;2022-11-15T05:44:44;5.90;99.90
12684;DHT22;6406;59.312;18.058;2022-11-15T05:47:16;5.90;99.90
12684;DHT22;6406;59.312;18.058;2022-11-15T05:49:45;4.90;99.90
12684;DHT22;6406;59.312;18.058;2022-11-15T05:52:18;4.10;99.90
12684;DHT22;6406;59.312;18.058;2022-11-15T05:54:48;5.90;99.90
12684;DHT22;6406;59.312;18.058;2022-11-15T05:57:15;5.90;99.90
12684;DHT22;6406;59.312;18.058;2022-11-15T05:59:43;6.00;99.90
12684;DHT22;6406;59.312;18.058;2022-11-15T06:02:10;6.00;99.90
12684;DHT22;6406;59.312;18.058;2022-11-15T06:04:39;6.10;99.90
12684;DHT22;6406;59.312;18.058;2022-11-15T06:07:06;6.10;99.90
12684;DHT22;6406;59.312;18.058;2022-11-15T06:09:33;5.50;99.90
12684;DHT22;6406;59.312;18.058;2022-11-15T06:12:03;6.40;99.90
12684;DHT22;6406;59.312;18.058;2022-11-15T06:14:33;6.20;99.90
12684;DHT22;6406;59.312;18.058;2022-11-15T06:17:00;6.20;99.90
12684;DHT22;6406;59.312;18.058;2022-11-15T06:19:27;6.20;99.90
12684;DHT22;6406;59.312;18.058;2022-11-15T06:21:58;6.30;99.90
12684;DHT22;6406;59.312;18.058;2022-11-15T06:24:28;6.20;99.90
12684;DHT22;6406;59.312;18.058;2022-11-15T06:26:55;6.20;99.90
12684;DHT22;6406;59.312;18.058;2022-11-15T06:29:24;6.30;99.90
12684;DHT22;6406;59.312;18.058;2022-11-15T06:31:51;6.40;99.90
12684;DHT22;6406;59.312;18.058;2022-11-15T06:34:19;5.30;99.90
12684;DHT22;6406;59.312;18.058;2022-11-15T06:36:48;5.10;99.90
12684;DHT22;6406;59.312;18.058;2022-11-15T06:39:19;6.30;99.90
12684;DHT22;6406;59.312;18.058;2022-11-15T06:41:48;6.30;99.90
12684;DHT22;6406;59.312;18.058;2022-11-15T06:44:16;6.20;99.90
12684;DHT22;6406;59.312;18.058;2022-11-15T06:46:47;6.30;99.90
12684;DHT22;6406;59.312;18.058;2022-11-15T06:49:14;6.40;99.90
12684;DHT22;6406;59.312;18.058;2022-11-15T06:51:46;6.50;99.90
12684;DHT22;6406;59.312;18.058;2022-11-15T06:54:15;6.20;99.90
12684;DHT22;6406;59.312;18.058;2022-11-15T06:56:45;4.70;99.90
12684;DHT22;6406;59.312;18.058;2022-11-15T06:59:20;6.50;99.90
12684;DHT22;6406;59.312;18.058;2022-11-15T07:01:56;6.60;99.90
12684;DHT22;6406;59.312;18.058;2022-11-15T07:04:24;6.50;99.90
12684;DHT22;6406;59.312;18.058;2022-11-15T07:06:53;6.50;99.90
12684;DHT22;6406;59.312;18.058;2022-11-15T07:09:35;6.60;99.90
12684;DHT22;6406;59.312;18.058;2022-11-15T07:12:03;6.60;99.90
12684;DHT22;6406;59.312;18.058;2022-11-15T07:14:44;6.80;99.90
12684;DHT22;6406;59.312;18.058;2022-11-15T07:17:15;6.60;99.90
12684;DHT22;6406;59.312;18.058;2022-11-15T07:19:49;6.30;99.90
12684;DHT22;6406;59.312;18.058;2022-11-15T07:22:18;6.70;99.90
12684;DHT22;6406;59.312;18.058;2022-11-15T07:24:47;6.60;99.90
12684;DHT22;6406;59.312;18.058;2022-11-15T07:27:15;5.50;99.90
12684;DHT22;6406;59.312;18.058;2022-11-15T07:29:45;6.80;99.90
12684;DHT22;6406;59.312;18.058;2022-11-15T07:32:30;6.70;99.90
12684;DHT22;6406;59.312;18.058;2022-11-15T07:35:04;6.70;99.90
12684;DHT22;6406;59.312;18.058;2022-11-15T07:37:34;6.80;99.90
12684;DHT22;6406;59.312;18.058;2022-11-15T07:40:16;6.70;99.90
12684;DHT22;6406;59.312;18.058;2022-11-15T07:42:45;5.90;99.90
12684;DHT22;6406;59.312;18.058;2022-11-15T07:45:24;7.30;99.90
12684;DHT22;6406;59.312;18.058;2022-11-15T07:47:56;6.80;99.90
12684;DHT22;6406;59.312;18.058;2022-11-15T07:50:27;6.80;99.90
12684;DHT22;6406;59.312;18.058;2022-11-15T07:52:58;6.90;99.90
12684;DHT22;6406;59.312;18.058;2022-11-15T07:55:29;6.90;99.90
12684;DHT22;6406;59.312;18.058;2022-11-15T07:58:00;6.80;99.90
12684;DHT22;6406;59.312;18.058;2022-11-15T08:00:28;6.80;99.90
12684;DHT22;6406;59.312;18.058;2022-11-15T08:03:03;6.80;99.90
12684;DHT22;6406;59.312;18.058;2022-11-15T08:05:31;6.60;99.90
12684;DHT22;6406;59.312;18.058;2022-11-15T08:07:59;6.60;99.90
12684;DHT22;6406;59.312;18.058;2022-11-15T08:10:27;9.40;99.90
12684;DHT22;6406;59.312;18.058;2022-11-15T08:12:59;7.10;99.90
12684;DHT22;6406;59.312;18.058;2022-11-15T08:15:27;6.80;99.90
12684;DHT22;6406;59.312;18.058;2022-11-15T08:17:55;7.10;99.90
12684;DHT22;6406;59.312;18.058;2022-11-15T08:20:26;7.00;99.90
12684;DHT22;6406;59.312;18.058;2022-11-15T08:22:57;6.90;99.90
12684;DHT22;6406;59.312;18.058;2022-11-15T08:25:24;6.90;99.90
12684;DHT22;6406;59.312;18.058;2022-11-15T08:27:53;6.80;99.90
12684;DHT22;6406;59.312;18.058;2022-11-15T08:30:21;6.70;99.90
12684;DHT22;6406;59.312;18.058;2022-11-15T08:32:49;7.10;99.90
12684;DHT22;6406;59.312;18.058;2022-11-15T08:35:18;6.60;99.90
12684;DHT22;6406;59.312;18.058;2022-11-15T08:37:47;7.00;99.90
12684;DHT22;6406;59.312;18.058;2022-11-15T08:40:18;6.60;99.90
12684;DHT22;6406;59.312;18.058;2022-11-15T08:42:46;6.20;99.90
12684;DHT22;6406;59.312;18.058;2022-11-15T08:45:14;6.70;99.90
12684;DHT22;6406;59.312;18.058;2022-11-15T08:47:44;6.60;99.90
12684;DHT22;6406;59.312;18.058;2022-11-15T08:50:12;6.70;99.90
12684;DHT22;6406;59.312;18.058;2022-11-15T08:52:39;4.90;99.90
12684;DHT22;6406;59.312;18.058;2022-11-15T08:55:08;6.70;99.90
12684;DHT22;6406;59.312;18.058;2022-11-15T08:57:36;6.70;99.90
12684;DHT22;6406;59.312;18.058;2022-11-15T09:00:03;6.70;99.90
12684;DHT22;6406;59.312;18.058;2022-11-15T09:02:31;6.70;99.90
12684;DHT22;6406;59.312;18.058;2022-11-15T09:04:58;6.80;99.90
12684;DHT22;6406;59.312;18.058;2022-11-15T09:07:27;6.00;99.90
12684;DHT22;6406;59.312;18.058;2022-11-15T09:09:55;7.20;99.90
12684;DHT22;6406;59.312;18.058;2022-11-15T09:12:24;6.80;99.90
12684;DHT22;6406;59.312;18.058;2022-11-15T09:14:53;6.80;99.90
12684;DHT22;6406;59.312;18.058;2022-11-15T09:17:20;6.80;99.90
12684;DHT22;6406;59.312;18.058;2022-11-15T09:19:47;6.90;99.90
12684;DHT22;6406;59.312;18.058;2022-11-15T09:22:14;7.00;99.90
12684;DHT22;6406;59.312;18.058;2022-11-15T09:24:42;7.00;99.90
12684;DHT22;6406;59.312;18.058;2022-11-15T09:27:10;7.00;99.90
12684;DHT22;6406;59.312;18.058;2022-11-15T09:29:40;6.90;99.90
12684;DHT22;6406;59.312;18.058;2022-11-15T09:32:08;7.00;99.90
12684;DHT22;6406;59.312;18.058;2022-11-15T09:34:37;6.90;99.90
12684;DHT22;6406;59.312;18.058;2022-11-15T09:37:04;7.00;99.90
12684;DHT22;6406;59.312;18.058;2022-11-15T09:39:31;7.00;99.90
12684;DHT22;6406;59.312;18.058;2022-11-15T09:42:08;6.90;99.90
12684;DHT22;6406;59.312;18.058;2022-11-15T09:44:48;6.90;99.90
12684;DHT22;6406;59.312;18.058;2022-11-15T09:47:32;7.00;99.90
12684;DHT22;6406;59.312;18.058;2022-11-15T09:50:10;6.90;99.90
12684;DHT22;6406;59.312;18.058;2022-11-15T09:52:42;6.90;99.90
12684;DHT22;6406;59.312;18.058;2022-11-15T09:55:10;7.10;99.90
12684;DHT22;6406;59.312;18.058;2022-11-15T09:57:46;7.10;99.90
12684;DHT22;6406;59.312;18.058;2022-11-15T10:00:22;7.10;99.90
12684;DHT22;6406;59.312;18.058;2022-11-15T10:03:14;7.10;99.90
12684;DHT22;6406;59.312;18.058;2022-11-15T10:05:45;7.10;99.90
12684;DHT22;6406;59.312;18.058;2022-11-15T10:08:24;7.10;99.90
12684;DHT22;6406;59.312;18.058;2022-11-15T10:11:01;7.20;99.90
12684;DHT22;6406;59.312;18.058;2022-11-15T10:13:32;7.30;99.90
12684;DHT22;6406;59.312;18.058;2022-11-15T10:16:08;7.50;99.90
12684;DHT22;6406;59.312;18.058;2022-11-15T10:18:50;7.20;99.90
12684;DHT22;6406;59.312;18.058;2022-11-15T10:21:20;7.30;99.90
12684;DHT22;6406;59.312;18.058;2022-11-15T10:23:49;7.20;99.90
12684;DHT22;6406;59.312;18.058;2022-11-15T10:26:17;7.20;99.90
12684;DHT22;6406;59.312;18.058;2022-11-15T10:28:45;6.00;99.90
12684;DHT22;6406;59.312;18.058;2022-11-15T10:31:24;7.20;99.90
12684;DHT22;6406;59.312;18.058;2022-11-15T10:36:45;7.20;99.90
12684;DHT22;6406;59.312;18.058;2022-11-15T10:39:13;7.00;99.90
12684;DHT22;6406;59.312;18.058;2022-11-15T10:41:42;7.10;99.90
12684;DHT22;6406;59.312;18.058;2022-11-15T10:44:21;6.20;99.90
12684;DHT22;6406;59.312;18.058;2022-11-15T10:47:24;7.20;99.90
12684;DHT22;6406;59.312;18.058;2022-11-15T10:50:00;7.20;99.90
12684;DHT22;6406;59.312;18.058;2022-11-15T10:52:29;7.20;99.90
12684;DHT22;6406;59.312;18.058;2022-11-15T10:55:00;7.20;99.90
12684;DHT22;6406;59.312;18.058;2022-11-15T10:57:31;7.20;99.90
12684;DHT22;6406;59.312;18.058;2022-11-15T11:00:01;7.30;99.90
12684;DHT22;6406;59.312;18.058;2022-11-15T11:02:33;7.20;99.90
12684;DHT22;6406;59.312;18.058;2022-11-15T11:05:03;7.30;99.90
12684;DHT22;6406;59.312;18.058;2022-11-15T11:07:34;7.30;99.90
12684;DHT22;6406;59.312;18.058;2022-11-15T11:10:17;7.20;99.90
12684;DHT22;6406;59.312;18.058;2022-11-15T11:12:45;7.20;99.90
12684;DHT22;6406;59.312;18.058;2022-11-15T11:15:15;7.20;99.90
12684;DHT22;6406;59.312;18.058;2022-11-15T11:17:55;7.30;99.90
12684;DHT22;6406;59.312;18.058;2022-11-15T11:20:30;7.20;99.90
12684;DHT22;6406;59.312;18.058;2022-11-15T11:23:19;6.50;99.90
12684;DHT22;6406;59.312;18.058;2022-11-15T11:25:52;7.20;99.90
12684;DHT22;6406;59.312;18.058;2022-11-15T11:28:36;7.40;99.90
12684;DHT22;6406;59.312;18.058;2022-11-15T11:31:17;7.30;99.90
12684;DHT22;6406;59.312;18.058;2022-11-15T11:33:57;7.50;99.90
12684;DHT22;6406;59.312;18.058;2022-11-15T11:36:30;7.40;99.90
12684;DHT22;6406;59.312;18.058;2022-11-15T11:39:14;7.40;99.90
12684;DHT22;6406;59.312;18.058;2022-11-15T11:41:53;7.50;99.90
12684;DHT22;6406;59.312;18.058;2022-11-15T11:44:33;7.30;99.90
12684;DHT22;6406;59.312;18.058;2022-11-15T11:47:06;5.70;99.90
12684;DHT22;6406;59.312;18.058;2022-11-15T11:49:41;7.20;99.90
12684;DHT22;6406;59.312;18.058;2022-11-15T11:52:14;7.30;99.90
12684;DHT22;6406;59.312;18.058;2022-11-15T11:54:51;7.30;99.90
12684;DHT22;6406;59.312;18.058;2022-11-15T11:57:27;7.40;99.90
12684;DHT22;6406;59.312;18.058;2022-11-15T12:00:01;7.40;99.90
12684;DHT22;6406;59.312;18.058;2022-11-15T12:02:34;7.40;99.90
12684;DHT22;6406;59.312;18.058;2022-11-15T12:05:12;7.40;99.90
12684;DHT22;6406;59.312;18.058;2022-11-15T12:08:25;8.60;99.90
12684;DHT22;6406;59.312;18.058;2022-11-15T12:11:03;7.20;99.90
12684;DHT22;6406;59.312;18.058;2022-11-15T12:13:32;7.60;99.90
12684;DHT22;6406;59.312;18.058;2022-11-15T12:16:07;7.30;99.90
12684;DHT22;6406;59.312;18.058;2022-11-15T12:18:38;7.10;99.90
12684;DHT22;6406;59.312;18.058;2022-11-15T12:21:14;7.00;99.90
12684;DHT22;6406;59.312;18.058;2022-11-15T12:23:48;7.00;99.90
12684;DHT22;6406;59.312;18.058;2022-11-15T12:26:18;7.00;99.90
12684;DHT22;6406;59.312;18.058;2022-11-15T12:28:49;7.20;99.90
12684;DHT22;6406;59.312;18.058;2022-11-15T12:31:26;7.00;99.90
12684;DHT22;6406;59.312;18.058;2022-11-15T12:33:57;7.10;99.90
12684;DHT22;6406;59.312;18.058;2022-11-15T12:36:36;7.00;99.90
12684;DHT22;6406;59.312;18.058;2022-11-15T12:39:05;7.00;99.90
12684;DHT22;6406;59.312;18.058;2022-11-15T12:41:35;7.00;99.90
12684;DHT22;6406;59.312;18.058;2022-11-15T12:44:11;6.90;99.90
12684;DHT22;6406;59.312;18.058;2022-11-15T12:47:02;6.90;99.90
12684;DHT22;6406;59.312;18.058;2022-11-15T12:49:44;6.90;99.90
12684;DHT22;6406;59.312;18.058;2022-11-15T12:52:13;7.00;99.90
12684;DHT22;6406;59.312;18.058;2022-11-15T12:55:01;7.00;99.90
12684;DHT22;6406;59.312;18.058;2022-11-15T12:57:40;7.00;99.90
12684;DHT22;6406;59.312;18.058;2022-11-15T13:00:37;6.80;99.90
12684;DHT22;6406;59.312;18.058;2022-11-15T13:03:25;6.80;99.90
12684;DHT22;6406;59.312;18.058;2022-11-15T13:06:01;6.80;99.90
12684;DHT22;6406;59.312;18.058;2022-11-15T13:08:45;6.90;99.90
12684;DHT22;6406;59.312;18.058;2022-11-15T13:11:42;6.80;99.90
12684;DHT22;6406;59.312;18.058;2022-11-15T13:14:40;6.70;99.90
12684;DHT22;6406;59.312;18.058;2022-11-15T13:17:30;6.70;99.90
12684;DHT22;6406;59.312;18.058;2022-11-15T13:22:48;6.70;99.90
12684;DHT22;6406;59.312;18.058;2022-11-15T13:25:57;6.60;99.90
12684;DHT22;6406;59.312;18.058;2022-11-15T13:28:32;6.60;99.90
12684;DHT22;6406;59.312;18.058;2022-11-15T13:31:02;6.60;99.90
12684;DHT22;6406;59.312;18.058;2022-11-15T13:33:32;6.60;99.90
12684;DHT22;6406;59.312;18.058;2022-11-15T13:36:02;6.60;99.90
12684;DHT22;6406;59.312;18.058;2022-11-15T13:38:32;3.50;99.90
12684;DHT22;6406;59.312;18.058;2022-11-15T13:41:18;6.70;99.90
12684;DHT22;6406;59.312;18.058;2022-11-15T13:43:46;6.70;99.90
12684;DHT22;6406;59.312;18.058;2022-11-15T13:46:16;6.60;99.90
12684;DHT22;6406;59.312;18.058;2022-11-15T13:48:45;6.60;99.90
12684;DHT22;6406;59.312;18.058;2022-11-15T13:51:20;6.60;99.90
12684;DHT22;6406;59.312;18.058;2022-11-15T13:53:51;6.50;99.90
12684;DHT22;6406;59.312;18.058;2022-11-15T13:56:22;6.80;99.90
12684;DHT22;6406;59.312;18.058;2022-11-15T13:58:49;6.80;99.90
12684;DHT22;6406;59.312;18.058;2022-11-15T14:01:21;6.30;99.90
12684;DHT22;6406;59.312;18.058;2022-11-15T14:03:54;6.30;99.90
12684;DHT22;6406;59.312;18.058;2022-11-15T14:06:24;6.60;99.90
12684;DHT22;6406;59.312;18.058;2022-11-15T14:09:04;6.20;99.90
12684;DHT22;6406;59.312;18.058;2022-11-15T14:11:33;6.20;99.90
12684;DHT22;6406;59.312;18.058;2022-11-15T14:14:11;6.30;99.90
12684;DHT22;6406;59.312;18.058;2022-11-15T14:16:40;6.30;99.90
12684;DHT22;6406;59.312;18.058;2022-11-15T14:19:11;4.60;99.90
12684;DHT22;6406;59.312;18.058;2022-11-15T14:22:08;6.20;99.90
12684;DHT22;6406;59.312;18.058;2022-11-15T14:24:36;6.30;99.90
12684;DHT22;6406;59.312;18.058;2022-11-15T14:27:22;6.50;99.90
12684;DHT22;6406;59.312;18.058;2022-11-15T14:29:50;6.50;99.90
12684;DHT22;6406;59.312;18.058;2022-11-15T14:32:19;5.50;99.90
12684;DHT22;6406;59.312;18.058;2022-11-15T14:34:48;6.60;99.90
12684;DHT22;6406;59.312;18.058;2022-11-15T14:37:23;6.40;99.90
12684;DHT22;6406;59.312;18.058;2022-11-15T14:39:57;6.50;99.90
12684;DHT22;6406;59.312;18.058;2022-11-15T14:42:26;6.30;99.90
12684;DHT22;6406;59.312;18.058;2022-11-15T14:44:54;6.30;99.90
12684;DHT22;6406;59.312;18.058;2022-11-15T14:47:21;6.30;99.90
12684;DHT22;6406;59.312;18.058;2022-11-15T14:49:48;6.70;99.90
12684;DHT22;6406;59.312;18.058;2022-11-15T14:52:46;6.30;99.90
12684;DHT22;6406;59.312;18.058;2022-11-15T14:55:17;6.40;99.90
12684;DHT22;6406;59.312;18.058;2022-11-15T14:57:50;6.30;99.90
12684;DHT22;6406;59.312;18.058;2022-11-15T15:00:18;6.20;99.90
12684;DHT22;6406;59.312;18.058;2022-11-15T15:02:48;5.40;99.90
12684;DHT22;6406;59.312;18.058;2022-11-15T15:05:17;6.10;99.90
12684;DHT22;6406;59.312;18.058;2022-11-15T15:07:45;6.10;99.90
12684;DHT22;6406;59.312;18.058;2022-11-15T15:10:13;6.00;99.90
12684;DHT22;6406;59.312;18.058;2022-11-15T15:12:41;6.10;99.90
12684;DHT22;6406;59.312;18.058;2022-11-15T15:15:16;6.10;99.90
12684;DHT22;6406;59.312;18.058;2022-11-15T15:17:43;6.10;99.90
12684;DHT22;6406;59.312;18.058;2022-11-15T15:20:11;6.10;99.90
12684;DHT22;6406;59.312;18.058;2022-11-15T15:22:38;6.30;99.90
12684;DHT22;6406;59.312;18.058;2022-11-15T15:25:26;6.30;99.90
12684;DHT22;6406;59.312;18.058;2022-11-15T15:27:54;6.10;99.90
12684;DHT22;6406;59.312;18.058;2022-11-15T15:30:25;6.20;99.90
12684;DHT22;6406;59.312;18.058;2022-11-15T15:32:53;6.30;99.90
12684;DHT22;6406;59.312;18.058;2022-11-15T15:35:21;6.10;99.90
12684;DHT22;6406;59.312;18.058;2022-11-15T15:37:52;6.00;99.90
12684;DHT22;6406;59.312;18.058;2022-11-15T15:40:29;6.00;99.90
12684;DHT22;6406;59.312;18.058;2022-11-15T15:43:00;5.90;99.90
12684;DHT22;6406;59.312;18.058;2022-11-15T15:45:33;5.90;99.90
12684;DHT22;6406;59.312;18.058;2022-11-15T15:48:05;6.30;99.90
12684;DHT22;6406;59.312;18.058;2022-11-15T15:50:43;6.10;99.90
12684;DHT22;6406;59.312;18.058;2022-11-15T15:53:12;6.20;99.90
12684;DHT22;6406;59.312;18.058;2022-11-15T15:55:44;6.30;99.90
12684;DHT22;6406;59.312;18.058;2022-11-15T15:58:14;5.00;99.90
12684;DHT22;6406;59.312;18.058;2022-11-15T16:00:42;5.90;99.90
12684;DHT22;6406;59.312;18.058;2022-11-15T16:03:11;6.00;99.90
12684;DHT22;6406;59.312;18.058;2022-11-15T16:05:39;6.10;99.90
12684;DHT22;6406;59.312;18.058;2022-11-15T16:08:21;5.90;99.90
12684;DHT22;6406;59.312;18.058;2022-11-15T16:10:52;5.90;99.90
12684;DHT22;6406;59.312;18.058;2022-11-15T16:13:21;5.80;99.90
12684;DHT22;6406;59.312;18.058;2022-11-15T16:15:52;5.10;99.90
12684;DHT22;6406;59.312;18.058;2022-11-15T16:18:21;6.00;99.90
12684;DHT22;6406;59.312;18.058;2022-11-15T16:20:49;6.10;99.90